Wallis, Texas
Current Conditions -  °F | °C
As of 8:55 PM on Wednesday 26 Nov 2014 (Local Time) from KELA Reporting Station
Clear Clear  
Wind Chill: 50°   Ceiling: Unl
Heat Index: 50°   Visibility: 10mi
Dew Point: 44°   Wind: 5mph
Humidity: 78%   Direction: 200°SSW
Pressure: 30.28"   Gusts: NA
Location:  29.63°N, 96.07°W
Report Text: KELA 270255Z AUTO 20004KT 10SM CLR 10/07 A3028 RMK AO2 T01020066
Loading
Personal Weather Stations






























Interactive Weather Map New forecast layout! Learn more

10-Day Weather Forecast

Advertisements
Track Severe Weather on mobile